Terminal Aerodrome Forecast
Issued by NWS Mt. Holly, NJ

Home | Current Version | Previous Version | Text Only | Print | Product List | Glossary On
Versions: 1 2 3 4 5 6 7 8 9 10 11 12 13 14 15 16 17 18 19
455
FTUS41 KPHI 232339
TAFACY
TAF
KACY 232339Z 2400/2424 21010G20KT P6SM SCT040
      TEMPO 2403/2407 3SM -TSRA BKN025CB BKN040
     FM240700 20010KT P6SM OVC090 WS020/23040KT
     FM241000 21011KT 3SM TSRA BKN030CB
     FM241400 30011KT P6SM SCT030 OVC050
     FM241700 29015G25KT P6SM SCT030
     FM242100 27014G24KT P6SM SKC=

USA.gov is the U.S. government's official web portal to all federal, state and local government web resources and services.